sensor_id;sensor_type;location;lat;lon;timestamp;pressure;altitude;pressure_sealevel;temperature;humidity
77452;BME280;66537;52.370;4.832;2024-03-02T00:00:06;99851.25;;;8.43;100.00
77452;BME280;66537;52.370;4.832;2024-03-02T00:02:43;99877.88;;;8.44;100.00
77452;BME280;66537;52.370;4.832;2024-03-02T00:05:18;99885.28;;;8.28;100.00
77452;BME280;66537;52.370;4.832;2024-03-02T00:08:04;99878.16;;;8.10;100.00
77452;BME280;66537;52.370;4.832;2024-03-02T00:10:39;99869.25;;;7.94;100.00
77452;BME280;66537;52.370;4.832;2024-03-02T00:13:06;99887.53;;;7.86;100.00
77452;BME280;66537;52.370;4.832;2024-03-02T00:20:45;99902.38;;;7.52;100.00
77452;BME280;66537;52.370;4.832;2024-03-02T00:23:15;99897.94;;;7.29;100.00
77452;BME280;66537;52.370;4.832;2024-03-02T00:25:46;99902.41;;;7.23;100.00
77452;BME280;66537;52.370;4.832;2024-03-02T00:28:20;99895.34;;;7.29;100.00
77452;BME280;66537;52.370;4.832;2024-03-02T00:33:34;99888.19;;;7.11;100.00
77452;BME280;66537;52.370;4.832;2024-03-02T00:36:00;99911.19;;;7.16;100.00
77452;BME280;66537;52.370;4.832;2024-03-02T00:38:27;99922.47;;;7.10;100.00
77452;BME280;66537;52.370;4.832;2024-03-02T00:40:53;99918.34;;;7.06;100.00
77452;BME280;66537;52.370;4.832;2024-03-02T00:43:42;99923.09;;;6.89;100.00
77452;BME280;66537;52.370;4.832;2024-03-02T00:46:12;99908.53;;;6.90;100.00
77452;BME280;66537;52.370;4.832;2024-03-02T00:48:39;99906.13;;;6.84;100.00
77452;BME280;66537;52.370;4.832;2024-03-02T00:51:09;99908.16;;;6.73;100.00
77452;BME280;66537;52.370;4.832;2024-03-02T00:53:34;99914.09;;;6.75;100.00
77452;BME280;66537;52.370;4.832;2024-03-02T00:56:01;99925.63;;;6.60;100.00
77452;BME280;66537;52.370;4.832;2024-03-02T00:58:26;99925.19;;;6.46;100.00
77452;BME280;66537;52.370;4.832;2024-03-02T01:00:51;99921.34;;;6.61;100.00
77452;BME280;66537;52.370;4.832;2024-03-02T01:03:17;99922.81;;;6.69;100.00
77452;BME280;66537;52.370;4.832;2024-03-02T01:05:43;99919.31;;;6.72;100.00
77452;BME280;66537;52.370;4.832;2024-03-02T01:08:09;99935.25;;;6.54;100.00
77452;BME280;66537;52.370;4.832;2024-03-02T01:10:35;99935.94;;;6.59;100.00
77452;BME280;66537;52.370;4.832;2024-03-02T01:13:00;99933.47;;;6.56;100.00
77452;BME280;66537;52.370;4.832;2024-03-02T01:15:26;99930.75;;;6.60;100.00
77452;BME280;66537;52.370;4.832;2024-03-02T01:17:51;99936.50;;;6.70;100.00
77452;BME280;66537;52.370;4.832;2024-03-02T01:20:16;99936.41;;;6.42;100.00
77452;BME280;66537;52.370;4.832;2024-03-02T01:22:42;99933.47;;;6.56;100.00
77452;BME280;66537;52.370;4.832;2024-03-02T01:25:08;99932.34;;;6.66;100.00
77452;BME280;66537;52.370;4.832;2024-03-02T01:27:33;99920.31;;;6.68;100.00
77452;BME280;66537;52.370;4.832;2024-03-02T01:29:59;99933.38;;;6.59;100.00
77452;BME280;66537;52.370;4.832;2024-03-02T01:32:25;99924.44;;;6.41;100.00
77452;BME280;66537;52.370;4.832;2024-03-02T01:34:50;99916.81;;;6.38;100.00
77452;BME280;66537;52.370;4.832;2024-03-02T01:37:15;99917.25;;;6.54;100.00
77452;BME280;66537;52.370;4.832;2024-03-02T01:39:41;99898.38;;;6.55;100.00
77452;BME280;66537;52.370;4.832;2024-03-02T01:42:09;99911.22;;;6.55;100.00
77452;BME280;66537;52.370;4.832;2024-03-02T01:44:36;99906.34;;;6.46;100.00
77452;BME280;66537;52.370;4.832;2024-03-02T01:47:01;99913.03;;;6.51;100.00
77452;BME280;66537;52.370;4.832;2024-03-02T01:49:27;99928.75;;;6.41;100.00
77452;BME280;66537;52.370;4.832;2024-03-02T01:51:52;99946.28;;;6.25;100.00
77452;BME280;66537;52.370;4.832;2024-03-02T01:54:17;99952.19;;;6.28;100.00
77452;BME280;66537;52.370;4.832;2024-03-02T01:56:43;99963.06;;;6.38;100.00
77452;BME280;66537;52.370;4.832;2024-03-02T01:59:08;99971.69;;;6.35;100.00
77452;BME280;66537;52.370;4.832;2024-03-02T02:01:33;99961.34;;;6.38;100.00
77452;BME280;66537;52.370;4.832;2024-03-02T02:03:59;99952.59;;;6.46;100.00
77452;BME280;66537;52.370;4.832;2024-03-02T02:06:24;99955.03;;;6.50;100.00
77452;BME280;66537;52.370;4.832;2024-03-02T02:08:50;99948.03;;;6.55;100.00
77452;BME280;66537;52.370;4.832;2024-03-02T02:11:15;99949.69;;;6.58;100.00
77452;BME280;66537;52.370;4.832;2024-03-02T02:13:41;99976.34;;;6.54;100.00
77452;BME280;66537;52.370;4.832;2024-03-02T02:16:07;99968.41;;;6.63;100.00
77452;BME280;66537;52.370;4.832;2024-03-02T02:18:33;99965.81;;;6.63;100.00
77452;BME280;66537;52.370;4.832;2024-03-02T02:20:58;99952.63;;;6.44;100.00
77452;BME280;66537;52.370;4.832;2024-03-02T02:23:23;99940.44;;;6.51;100.00
77452;BME280;66537;52.370;4.832;2024-03-02T02:25:49;99959.28;;;6.51;100.00
77452;BME280;66537;52.370;4.832;2024-03-02T02:28:14;99958.28;;;6.57;100.00
77452;BME280;66537;52.370;4.832;2024-03-02T02:30:39;99959.88;;;6.61;100.00
77452;BME280;66537;52.370;4.832;2024-03-02T02:33:05;99951.00;;;6.72;100.00
77452;BME280;66537;52.370;4.832;2024-03-02T02:35:30;99953.72;;;6.66;100.00
77452;BME280;66537;52.370;4.832;2024-03-02T02:37:56;99947.03;;;6.61;100.00
77452;BME280;66537;52.370;4.832;2024-03-02T02:40:23;99957.84;;;6.73;100.00
77452;BME280;66537;52.370;4.832;2024-03-02T02:42:48;99958.72;;;6.72;100.00
77452;BME280;66537;52.370;4.832;2024-03-02T02:45:14;99961.22;;;6.74;100.00
77452;BME280;66537;52.370;4.832;2024-03-02T02:47:41;99965.66;;;6.69;100.00
77452;BME280;66537;52.370;4.832;2024-03-02T02:50:10;99959.69;;;6.68;100.00
77452;BME280;66537;52.370;4.832;2024-03-02T02:52:39;99957.09;;;6.68;100.00
77452;BME280;66537;52.370;4.832;2024-03-02T02:55:07;99970.38;;;6.53;100.00
77452;BME280;66537;52.370;4.832;2024-03-02T02:57:34;99968.03;;;6.76;100.00
77452;BME280;66537;52.370;4.832;2024-03-02T03:00:11;99974.09;;;6.74;100.00
77452;BME280;66537;52.370;4.832;2024-03-02T03:02:40;99968.06;;;6.75;100.00
77452;BME280;66537;52.370;4.832;2024-03-02T03:05:07;99973.00;;;6.82;100.00
77452;BME280;66537;52.370;4.832;2024-03-02T03:07:33;99964.34;;;6.86;100.00
77452;BME280;66537;52.370;4.832;2024-03-02T03:10:00;99965.94;;;6.58;100.00
77452;BME280;66537;52.370;4.832;2024-03-02T03:12:25;99970.91;;;6.66;100.00
77452;BME280;66537;52.370;4.832;2024-03-02T03:14:51;99976.72;;;6.72;100.00
77452;BME280;66537;52.370;4.832;2024-03-02T03:17:16;99980.03;;;6.76;100.00
77452;BME280;66537;52.370;4.832;2024-03-02T03:19:42;99970.66;;;6.75;100.00
77452;BME280;66537;52.370;4.832;2024-03-02T03:22:08;99972.38;;;6.74;100.00
77452;BME280;66537;52.370;4.832;2024-03-02T03:24:33;99967.69;;;6.58;100.00
77452;BME280;66537;52.370;4.832;2024-03-02T03:26:58;99976.88;;;6.66;100.00
77452;BME280;66537;52.370;4.832;2024-03-02T03:29:24;99972.94;;;6.53;100.00
77452;BME280;66537;52.370;4.832;2024-03-02T03:31:49;99976.25;;;6.57;100.00
77452;BME280;66537;52.370;4.832;2024-03-02T03:34:14;99970.69;;;6.41;100.00
77452;BME280;66537;52.370;4.832;2024-03-02T03:36:41;99976.63;;;6.43;100.00
77452;BME280;66537;52.370;4.832;2024-03-02T03:39:07;99984.31;;;6.43;100.00
77452;BME280;66537;52.370;4.832;2024-03-02T03:41:32;99981.38;;;6.24;100.00
77452;BME280;66537;52.370;4.832;2024-03-02T03:43:57;99983.59;;;6.38;100.00
77452;BME280;66537;52.370;4.832;2024-03-02T03:46:23;99978.72;;;6.29;100.00
77452;BME280;66537;52.370;4.832;2024-03-02T03:48:48;99981.09;;;6.36;100.00
77452;BME280;66537;52.370;4.832;2024-03-02T03:51:13;99994.09;;;6.30;100.00
77452;BME280;66537;52.370;4.832;2024-03-02T03:53:39;99983.00;;;6.28;100.00
77452;BME280;66537;52.370;4.832;2024-03-02T03:56:04;99997.94;;;6.47;100.00
77452;BME280;66537;52.370;4.832;2024-03-02T03:58:30;99991.13;;;6.46;100.00
77452;BME280;66537;52.370;4.832;2024-03-02T04:00:55;100000.69;;;6.39;100.00
77452;BME280;66537;52.370;4.832;2024-03-02T04:03:21;99999.59;;;6.49;100.00
77452;BME280;66537;52.370;4.832;2024-03-02T04:05:46;100004.47;;;6.58;100.00
77452;BME280;66537;52.370;4.832;2024-03-02T04:08:11;99996.09;;;6.52;100.00
77452;BME280;66537;52.370;4.832;2024-03-02T04:10:37;99998.69;;;6.52;100.00
77452;BME280;66537;52.370;4.832;2024-03-02T04:13:02;99994.78;;;6.35;100.00
77452;BME280;66537;52.370;4.832;2024-03-02T04:15:27;99997.13;;;6.46;100.00
77452;BME280;66537;52.370;4.832;2024-03-02T04:17:53;100003.16;;;6.44;100.00
77452;BME280;66537;52.370;4.832;2024-03-02T04:20:18;100006.53;;;6.46;100.00
77452;BME280;66537;52.370;4.832;2024-03-02T04:22:43;100015.50;;;6.29;100.00
77452;BME280;66537;52.370;4.832;2024-03-02T04:25:09;100012.69;;;6.40;100.00
77452;BME280;66537;52.370;4.832;2024-03-02T04:27:35;100013.53;;;6.41;100.00
77452;BME280;66537;52.370;4.832;2024-03-02T04:30:00;100011.81;;;6.39;100.00
77452;BME280;66537;52.370;4.832;2024-03-02T04:32:26;100015.16;;;6.43;100.00
77452;BME280;66537;52.370;4.832;2024-03-02T04:34:52;100010.16;;;6.37;100.00
77452;BME280;66537;52.370;4.832;2024-03-02T04:37:17;100015.72;;;6.56;100.00
77452;BME280;66537;52.370;4.832;2024-03-02T04:39:43;100010.50;;;6.23;100.00
77452;BME280;66537;52.370;4.832;2024-03-02T04:42:08;100019.09;;;6.22;100.00
77452;BME280;66537;52.370;4.832;2024-03-02T04:44:33;100006.19;;;5.90;100.00
77452;BME280;66537;52.370;4.832;2024-03-02T04:46:59;100018.78;;;5.99;100.00
77452;BME280;66537;52.370;4.832;2024-03-02T04:49:24;100023.97;;;5.98;100.00
77452;BME280;66537;52.370;4.832;2024-03-02T04:51:49;100021.41;;;5.96;100.00
77452;BME280;66537;52.370;4.832;2024-03-02T04:54:15;100023.44;;;5.84;100.00
77452;BME280;66537;52.370;4.832;2024-03-02T04:56:40;100032.78;;;5.86;100.00
77452;BME280;66537;52.370;4.832;2024-03-02T04:59:10;100031.00;;;5.90;100.00
77452;BME280;66537;52.370;4.832;2024-03-02T05:01:35;100038.44;;;6.00;100.00
77452;BME280;66537;52.370;4.832;2024-03-02T05:04:01;100041.31;;;5.87;100.00
77452;BME280;66537;52.370;4.832;2024-03-02T05:06:26;100038.75;;;5.87;100.00
77452;BME280;66537;52.370;4.832;2024-03-02T05:08:51;100046.72;;;5.75;100.00
77452;BME280;66537;52.370;4.832;2024-03-02T05:11:17;100045.69;;;5.83;100.00
77452;BME280;66537;52.370;4.832;2024-03-02T05:14:14;100043.97;;;5.82;100.00
77452;BME280;66537;52.370;4.832;2024-03-02T05:16:39;100049.28;;;5.73;100.00
77452;BME280;66537;52.370;4.832;2024-03-02T05:19:07;100051.81;;;5.76;100.00
77452;BME280;66537;52.370;4.832;2024-03-02T05:21:33;100051.97;;;5.67;100.00
77452;BME280;66537;52.370;4.832;2024-03-02T05:23:58;100057.97;;;5.68;100.00
77452;BME280;66537;52.370;4.832;2024-03-02T05:26:24;100055.19;;;5.78;100.00
77452;BME280;66537;52.370;4.832;2024-03-02T05:28:49;100058.84;;;5.67;100.00
77452;BME280;66537;52.370;4.832;2024-03-02T05:31:17;100059.53;;;5.75;100.00
77452;BME280;66537;52.370;4.832;2024-03-02T05:33:43;100064.13;;;5.61;100.00
77452;BME280;66537;52.370;4.832;2024-03-02T05:36:09;100058.00;;;5.66;100.00
77452;BME280;66537;52.370;4.832;2024-03-02T05:38:34;100065.91;;;5.57;100.00
77452;BME280;66537;52.370;4.832;2024-03-02T05:41:00;100065.22;;;5.49;100.00
77452;BME280;66537;52.370;4.832;2024-03-02T05:43:26;100072.66;;;5.61;100.00
77452;BME280;66537;52.370;4.832;2024-03-02T05:45:51;100071.06;;;5.54;100.00
77452;BME280;66537;52.370;4.832;2024-03-02T05:48:16;100076.78;;;5.68;100.00
77452;BME280;66537;52.370;4.832;2024-03-02T05:50:42;100072.94;;;5.46;100.00
77452;BME280;66537;52.370;4.832;2024-03-02T05:53:07;100078.72;;;5.56;100.00
77452;BME280;66537;52.370;4.832;2024-03-02T05:55:32;100086.16;;;5.71;100.00
77452;BME280;66537;52.370;4.832;2024-03-02T05:57:58;100089.69;;;5.65;100.00
77452;BME280;66537;52.370;4.832;2024-03-02T06:00:23;100086.84;;;5.77;100.00
77452;BME280;66537;52.370;4.832;2024-03-02T06:02:48;100088.38;;;5.87;100.00
77452;BME280;66537;52.370;4.832;2024-03-02T06:05:14;100088.97;;;6.00;100.00
77452;BME280;66537;52.370;4.832;2024-03-02T06:07:40;100074.69;;;5.88;100.00
77452;BME280;66537;52.370;4.832;2024-03-02T06:10:06;100079.66;;;5.96;100.00
77452;BME280;66537;52.370;4.832;2024-03-02T06:12:32;100083.84;;;5.98;100.00
77452;BME280;66537;52.370;4.832;2024-03-02T06:14:58;100075.09;;;6.07;100.00
77452;BME280;66537;52.370;4.832;2024-03-02T06:17:23;100086.09;;;6.12;100.00
77452;BME280;66537;52.370;4.832;2024-03-02T06:19:48;100083.66;;;6.07;100.00
77452;BME280;66537;52.370;4.832;2024-03-02T06:22:14;100097.19;;;6.15;100.00
77452;BME280;66537;52.370;4.832;2024-03-02T06:24:39;100085.84;;;6.24;100.00
77452;BME280;66537;52.370;4.832;2024-03-02T06:27:05;100085.88;;;6.22;100.00
77452;BME280;66537;52.370;4.832;2024-03-02T06:29:33;100094.53;;;6.18;100.00
77452;BME280;66537;52.370;4.832;2024-03-02T06:31:58;100085.91;;;6.21;100.00
77452;BME280;66537;52.370;4.832;2024-03-02T06:34:25;100099.47;;;6.26;100.00
77452;BME280;66537;52.370;4.832;2024-03-02T06:36:50;100103.03;;;6.20;100.00
77452;BME280;66537;52.370;4.832;2024-03-02T06:39:16;100097.94;;;6.19;100.00
77452;BME280;66537;52.370;4.832;2024-03-02T06:41:41;100101.47;;;6.15;100.00
77452;BME280;66537;52.370;4.832;2024-03-02T06:44:07;100111.66;;;6.18;100.00
77452;BME280;66537;52.370;4.832;2024-03-02T06:46:33;100105.66;;;6.19;100.00
77452;BME280;66537;52.370;4.832;2024-03-02T06:48:58;100110.97;;;6.11;100.00
77452;BME280;66537;52.370;4.832;2024-03-02T06:51:24;100109.94;;;6.18;100.00
77452;BME280;66537;52.370;4.832;2024-03-02T06:53:49;100119.91;;;6.32;100.00
77452;BME280;66537;52.370;4.832;2024-03-02T06:56:17;100106.16;;;6.33;100.00
77452;BME280;66537;52.370;4.832;2024-03-02T06:58:42;100102.59;;;6.40;100.00
77452;BME280;66537;52.370;4.832;2024-03-02T07:01:08;100106.97;;;6.36;100.00
77452;BME280;66537;52.370;4.832;2024-03-02T07:03:35;100110.47;;;6.32;100.00
77452;BME280;66537;52.370;4.832;2024-03-02T07:06:00;100112.59;;;6.52;100.00
77452;BME280;66537;52.370;4.832;2024-03-02T07:08:25;100108.41;;;6.47;100.00
77452;BME280;66537;52.370;4.832;2024-03-02T07:10:51;100110.03;;;6.52;100.00
77452;BME280;66537;52.370;4.832;2024-03-02T07:13:16;100120.13;;;6.58;100.00
77452;BME280;66537;52.370;4.832;2024-03-02T07:15:42;100117.22;;;6.72;100.00
77452;BME280;66537;52.370;4.832;2024-03-02T07:18:25;100110.59;;;6.63;100.00
77452;BME280;66537;52.370;4.832;2024-03-02T07:20:51;100113.31;;;6.57;100.00
77452;BME280;66537;52.370;4.832;2024-03-02T07:23:16;100111.44;;;6.64;100.00
77452;BME280;66537;52.370;4.832;2024-03-02T07:25:41;100123.63;;;6.56;100.00
77452;BME280;66537;52.370;4.832;2024-03-02T07:28:07;100121.88;;;6.58;100.00
77452;BME280;66537;52.370;4.832;2024-03-02T07:30:32;100131.34;;;6.56;100.00
77452;BME280;66537;52.370;4.832;2024-03-02T07:32:59;100137.91;;;6.67;100.00
77452;BME280;66537;52.370;4.832;2024-03-02T07:35:24;100139.59;;;6.68;100.00
77452;BME280;66537;52.370;4.832;2024-03-02T07:37:53;100132.84;;;6.64;100.00
77452;BME280;66537;52.370;4.832;2024-03-02T07:40:18;100137.09;;;6.65;100.00
77452;BME280;66537;52.370;4.832;2024-03-02T07:42:44;100137.84;;;6.70;100.00
77452;BME280;66537;52.370;4.832;2024-03-02T07:45:10;100140.31;;;6.75;100.00
77452;BME280;66537;52.370;4.832;2024-03-02T07:47:36;100143.69;;;6.77;100.00
77452;BME280;66537;52.370;4.832;2024-03-02T07:50:02;100156.25;;;6.89;100.00
77452;BME280;66537;52.370;4.832;2024-03-02T07:52:28;100152.97;;;6.82;100.00
77452;BME280;66537;52.370;4.832;2024-03-02T07:54:53;100149.34;;;6.91;100.00
77452;BME280;66537;52.370;4.832;2024-03-02T07:57:19;100156.09;;;6.93;100.00
77452;BME280;66537;52.370;4.832;2024-03-02T07:59:44;100159.91;;;7.12;100.00
77452;BME280;66537;52.370;4.832;2024-03-02T08:02:10;100158.72;;;6.92;100.00
77452;BME280;66537;52.370;4.832;2024-03-02T08:04:35;100158.94;;;7.18;100.00
77452;BME280;66537;52.370;4.832;2024-03-02T08:07:01;100154.06;;;7.07;100.00
77452;BME280;66537;52.370;4.832;2024-03-02T08:09:27;100159.97;;;7.43;100.00
77452;BME280;66537;52.370;4.832;2024-03-02T08:11:52;100166.53;;;7.53;100.00
77452;BME280;66537;52.370;4.832;2024-03-02T08:14:18;100164.28;;;7.73;100.00
77452;BME280;66537;52.370;4.832;2024-03-02T08:16:43;100162.19;;;8.16;100.00
77452;BME280;66537;52.370;4.832;2024-03-02T08:19:09;100154.47;;;8.72;100.00
77452;BME280;66537;52.370;4.832;2024-03-02T08:21:34;100165.63;;;8.98;100.00
77452;BME280;66537;52.370;4.832;2024-03-02T08:24:01;100149.63;;;10.09;100.00
77452;BME280;66537;52.370;4.832;2024-03-02T08:26:27;100155.06;;;10.69;100.00
77452;BME280;66537;52.370;4.832;2024-03-02T08:28:55;100148.03;;;10.73;100.00
77452;BME280;66537;52.370;4.832;2024-03-02T08:31:20;100148.22;;;10.47;100.00
77452;BME280;66537;52.370;4.832;2024-03-02T08:33:45;100145.81;;;10.64;100.00
77452;BME280;66537;52.370;4.832;2024-03-02T08:36:11;100138.91;;;11.26;100.00
77452;BME280;66537;52.370;4.832;2024-03-02T08:38:37;100136.53;;;11.99;100.00
77452;BME280;66537;52.370;4.832;2024-03-02T08:41:02;100127.25;;;12.49;100.00
77452;BME280;66537;52.370;4.832;2024-03-02T08:43:28;100144.91;;;13.13;100.00
77452;BME280;66537;52.370;4.832;2024-03-02T08:45:54;100136.19;;;13.96;100.00
77452;BME280;66537;52.370;4.832;2024-03-02T08:48:19;100127.38;;;13.50;100.00
77452;BME280;66537;52.370;4.832;2024-03-02T08:50:46;100122.28;;;13.82;100.00
77452;BME280;66537;52.370;4.832;2024-03-02T08:53:11;100126.41;;;14.17;100.00
77452;BME280;66537;52.370;4.832;2024-03-02T08:55:37;100138.66;;;13.99;100.00
77452;BME280;66537;52.370;4.832;2024-03-02T08:58:02;100134.03;;;13.56;100.00
77452;BME280;66537;52.370;4.832;2024-03-02T09:00:28;100145.13;;;13.42;100.00
77452;BME280;66537;52.370;4.832;2024-03-02T09:02:54;100144.31;;;13.90;100.00
77452;BME280;66537;52.370;4.832;2024-03-02T09:05:19;100151.44;;;15.11;100.00
77452;BME280;66537;52.370;4.832;2024-03-02T09:07:44;100153.47;;;14.61;100.00
77452;BME280;66537;52.370;4.832;2024-03-02T09:10:10;100148.19;;;14.31;100.00
77452;BME280;66537;52.370;4.832;2024-03-02T09:12:35;100150.06;;;14.90;100.00
77452;BME280;66537;52.370;4.832;2024-03-02T09:15:01;100147.38;;;14.92;100.00
77452;BME280;66537;52.370;4.832;2024-03-02T09:17:28;100154.19;;;15.08;100.00
77452;BME280;66537;52.370;4.832;2024-03-02T09:19:53;100158.41;;;15.55;100.00
77452;BME280;66537;52.370;4.832;2024-03-02T09:22:19;100156.44;;;16.28;100.00
77452;BME280;66537;52.370;4.832;2024-03-02T09:24:45;100151.28;;;15.28;100.00
77452;BME280;66537;52.370;4.832;2024-03-02T09:27:10;100150.41;;;15.44;100.00
77452;BME280;66537;52.370;4.832;2024-03-02T09:29:36;100159.53;;;15.51;100.00
77452;BME280;66537;52.370;4.832;2024-03-02T09:32:01;100157.84;;;15.20;100.00
77452;BME280;66537;52.370;4.832;2024-03-02T09:34:26;100160.41;;;15.79;100.00
77452;BME280;66537;52.370;4.832;2024-03-02T09:36:52;100158.44;;;15.69;100.00
77452;BME280;66537;52.370;4.832;2024-03-02T09:39:17;100156.66;;;15.83;100.00
77452;BME280;66537;52.370;4.832;2024-03-02T09:41:43;100144.50;;;15.40;100.00
77452;BME280;66537;52.370;4.832;2024-03-02T09:44:09;100156.75;;;15.82;100.00
77452;BME280;66537;52.370;4.832;2024-03-02T09:46:35;100160.38;;;15.51;100.00
77452;BME280;66537;52.370;4.832;2024-03-02T09:49:03;100169.44;;;14.85;100.00
77452;BME280;66537;52.370;4.832;2024-03-02T09:51:28;100154.44;;;14.74;100.00
77452;BME280;66537;52.370;4.832;2024-03-02T09:53:55;100160.06;;;15.12;100.00
77452;BME280;66537;52.370;4.832;2024-03-02T09:56:23;100170.00;;;15.93;100.00
77452;BME280;66537;52.370;4.832;2024-03-02T09:58:49;100156.69;;;16.38;100.00
77452;BME280;66537;52.370;4.832;2024-03-02T10:01:14;100157.97;;;15.76;100.00
77452;BME280;66537;52.370;4.832;2024-03-02T10:03:39;100163.66;;;15.83;100.00
77452;BME280;66537;52.370;4.832;2024-03-02T10:08:46;100164.13;;;16.17;100.00
77452;BME280;66537;52.370;4.832;2024-03-02T10:13:50;100164.38;;;16.13;100.00
77452;BME280;66537;52.370;4.832;2024-03-02T10:16:17;100165.06;;;16.57;100.00
77452;BME280;66537;52.370;4.832;2024-03-02T10:18:42;100176.78;;;16.09;100.00
77452;BME280;66537;52.370;4.832;2024-03-02T10:21:14;100166.22;;;16.80;100.00
77452;BME280;66537;52.370;4.832;2024-03-02T10:23:40;100166.50;;;17.02;100.00
77452;BME280;66537;52.370;4.832;2024-03-02T10:26:17;100171.41;;;16.53;100.00
77452;BME280;66537;52.370;4.832;2024-03-02T10:28:48;100166.13;;;16.26;100.00
77452;BME280;66537;52.370;4.832;2024-03-02T10:31:14;100171.47;;;15.25;100.00
77452;BME280;66537;52.370;4.832;2024-03-02T10:33:40;100162.78;;;14.50;100.00
77452;BME280;66537;52.370;4.832;2024-03-02T10:36:05;100177.19;;;15.02;100.00
77452;BME280;66537;52.370;4.832;2024-03-02T10:38:30;100173.88;;;15.44;100.00
77452;BME280;66537;52.370;4.832;2024-03-02T10:40:57;100176.69;;;15.69;100.00
77452;BME280;66537;52.370;4.832;2024-03-02T10:43:25;100167.56;;;15.32;100.00
77452;BME280;66537;52.370;4.832;2024-03-02T10:45:52;100165.84;;;15.47;100.00
77452;BME280;66537;52.370;4.832;2024-03-02T10:48:18;100164.47;;;15.11;100.00
77452;BME280;66537;52.370;4.832;2024-03-02T10:50:43;100146.13;;;15.13;100.00
77452;BME280;66537;52.370;4.832;2024-03-02T10:53:11;100150.94;;;15.05;100.00
77452;BME280;66537;52.370;4.832;2024-03-02T10:55:36;100151.28;;;15.28;100.00
77452;BME280;66537;52.370;4.832;2024-03-02T10:58:04;100143.09;;;14.75;100.00
77452;BME280;66537;52.370;4.832;2024-03-02T11:00:34;100157.59;;;14.65;100.00
77452;BME280;66537;52.370;4.832;2024-03-02T11:03:06;100146.09;;;14.38;100.00
77452;BME280;66537;52.370;4.832;2024-03-02T11:05:36;100156.66;;;13.54;100.00
77452;BME280;66537;52.370;4.832;2024-03-02T11:08:07;100142.34;;;13.95;100.00
77452;BME280;66537;52.370;4.832;2024-03-02T11:10:35;100140.56;;;14.11;100.00
77452;BME280;66537;52.370;4.832;2024-03-02T11:13:05;100139.72;;;14.89;100.00
77452;BME280;66537;52.370;4.832;2024-03-02T11:15:34;100134.34;;;14.92;100.00
77452;BME280;66537;52.370;4.832;2024-03-02T11:18:04;100142.25;;;14.90;100.00
77452;BME280;66537;52.370;4.832;2024-03-02T11:20:36;100139.03;;;14.40;100.00
77452;BME280;66537;52.370;4.832;2024-03-02T11:23:08;100141.81;;;14.98;100.00
77452;BME280;66537;52.370;4.832;2024-03-02T11:25:34;100136.94;;;14.92;100.00
77452;BME280;66537;52.370;4.832;2024-03-02T11:32:58;100137.41;;;15.28;100.00
77452;BME280;66537;52.370;4.832;2024-03-02T11:35:27;100137.28;;;15.59;100.00
77452;BME280;66537;52.370;4.832;2024-03-02T11:37:54;100129.19;;;15.06;99.52
77452;BME280;66537;52.370;4.832;2024-03-02T11:40:23;100140.09;;;15.26;100.00
77452;BME280;66537;52.370;4.832;2024-03-02T11:42:49;100140.56;;;15.19;100.00
77452;BME280;66537;52.370;4.832;2024-03-02T11:45:22;100133.84;;;15.15;100.00
77452;BME280;66537;52.370;4.832;2024-03-02T11:47:53;100142.00;;;15.38;100.00
77452;BME280;66537;52.370;4.832;2024-03-02T11:52:55;100129.19;;;15.78;99.83
77452;BME280;66537;52.370;4.832;2024-03-02T11:55:21;100124.34;;;15.72;100.00
77452;BME280;66537;52.370;4.832;2024-03-02T11:57:48;100131.53;;;15.54;100.00
77452;BME280;66537;52.370;4.832;2024-03-02T12:00:19;100131.84;;;14.90;100.00
77452;BME280;66537;52.370;4.832;2024-03-02T12:02:46;100139.59;;;14.61;100.00
77452;BME280;66537;52.370;4.832;2024-03-02T12:05:17;100138.63;;;14.48;100.00
77452;BME280;66537;52.370;4.832;2024-03-02T12:07:43;100126.34;;;14.65;98.51
77452;BME280;66537;52.370;4.832;2024-03-02T12:10:08;100129.88;;;14.48;97.65
77452;BME280;66537;52.370;4.832;2024-03-02T12:12:36;100114.34;;;14.47;100.00
77452;BME280;66537;52.370;4.832;2024-03-02T12:15:01;100118.69;;;14.46;100.00
77452;BME280;66537;52.370;4.832;2024-03-02T12:17:29;100107.81;;;14.40;100.00
77452;BME280;66537;52.370;4.832;2024-03-02T12:19:54;100095.19;;;14.17;100.00
77452;BME280;66537;52.370;4.832;2024-03-02T12:22:21;100102.06;;;14.02;100.00
77452;BME280;66537;52.370;4.832;2024-03-02T12:24:46;100107.47;;;14.15;100.00
77452;BME280;66537;52.370;4.832;2024-03-02T12:27:13;100102.50;;;14.10;100.00
77452;BME280;66537;52.370;4.832;2024-03-02T12:29:40;100100.84;;;13.77;100.00
77452;BME280;66537;52.370;4.832;2024-03-02T12:32:05;100093.41;;;13.38;100.00
77452;BME280;66537;52.370;4.832;2024-03-02T12:34:34;100094.75;;;13.12;100.00
77452;BME280;66537;52.370;4.832;2024-03-02T12:36:59;100087.47;;;13.02;100.00
77452;BME280;66537;52.370;4.832;2024-03-02T12:39:25;100085.75;;;13.01;100.00
77452;BME280;66537;52.370;4.832;2024-03-02T12:41:51;100082.03;;;12.89;100.00
77452;BME280;66537;52.370;4.832;2024-03-02T12:44:19;100075.75;;;12.59;100.00
77452;BME280;66537;52.370;4.832;2024-03-02T12:46:45;100070.56;;;12.59;100.00
77452;BME280;66537;52.370;4.832;2024-03-02T12:49:13;100069.59;;;12.61;100.00
77452;BME280;66537;52.370;4.832;2024-03-02T12:51:40;100077.03;;;12.50;100.00
77452;BME280;66537;52.370;4.832;2024-03-02T12:54:06;100070.56;;;12.59;100.00
77452;BME280;66537;52.370;4.832;2024-03-02T12:56:32;100072.41;;;12.57;100.00
77452;BME280;66537;52.370;4.832;2024-03-02T12:58:58;100060.78;;;12.64;100.00
77452;BME280;66537;52.370;4.832;2024-03-02T13:01:24;100066.66;;;12.50;100.00
77452;BME280;66537;52.370;4.832;2024-03-02T13:03:51;100074.53;;;12.49;100.00
77452;BME280;66537;52.370;4.832;2024-03-02T13:06:17;100069.97;;;12.54;100.00